Ardmore, Missouri
Current Conditions -  °F | °C
As of 3:55 AM on Friday 24 Oct 2014 (Local Time) from KIRK Reporting Station
Moderate Fog Moderate Fog  
Wind Chill: 56°   Ceiling: 200
Heat Index: 56°   Visibility: 0.25mi
Dew Point: 56°   Wind: 6mph
Humidity: 100%   Direction: 260°W
Pressure: 30.07"   Gusts: NA
Location:  39.6493°N, 92.4492°W
Report Text: KIRK 240855Z AUTO 26005KT 1/4SM FG VV002 13/13 A3007 RMK AO2 SLP183 T01330133 56003
Loading
Personal Weather Stations






























Interactive Weather Map
Tropical Storm Tracking
New forecast layout! Learn more

10-Day Weather Forecast

Advertisements
Track Severe Weather on mobile